KBKL/BKL METAR and TAF weather

Enter ICAO airport designator
Station Type Date Time Source
KBKL METAR 2019/06/26 21:53 UTC NOAA

KBKL 262153Z 31003KT 10SM CLR 26/19 A3006 RMK AO2 SLP174 T02560189


Station Type Date Time Source
KBKL Decoded METAR 2019/06/26 21:53 UTC NOAA

CLEVELAND BURKE LAKEFRONT, OH, United States (KBKL) 41-32N 81-40W 184M
Jun 26, 2019 - 05:53 PM EDT / 2019.06.26 2153 UTC
Wind: from the NW (310 degrees) at 3 MPH (3 KT):0
Visibility: 10 mile(s):0
Sky conditions: clear
Temperature: 78.1 F (25.6 C)
Dew Point: 66.0 F (18.9 C)
Relative Humidity: 66%
Pressure (altimeter): 30.06 in. Hg (1017 hPa)
ob: KBKL 262153Z 31003KT 10SM CLR 26/19 A3006 RMK AO2 SLP174 T02560189
cycle: 22

Station Type Date Time Source
KBKL TAF UTC NOAA

Error!

Example: see airport list